Time;durP1;ratioP1;P1;durP2;ratioP2;P2;SDS_P1;SDS_P2;PMS_P1;PMS_P2;Temp;Humidity;BMP_temperature;BMP_pressure;BME280_temperature;BME280_humidity;BME280_pressure;Samples;Min_cycle;Max_cycle;Signal;HPM_P1;HPM_P2
2024/04/11 00:00:02;;;;;;;8.10;2.17;;;;;;;6.69;55.33;101738.22;5509249;26;20215;-69
2024/04/11 00:02:29;;;;;;;8.93;1.83;;;;;;;6.73;55.42;101733.91;5511571;26;20226;-69
2024/04/11 00:04:58;;;;;;;4.87;1.53;;;;;;;6.72;55.61;101747.78;5516398;26;20245;-69
2024/04/11 00:07:24;;;;;;;6.73;1.47;;;;;;;6.72;55.55;101747.78;5521014;26;20220;-69
2024/04/11 00:09:55;;;;;;;8.13;1.80;;;;;;;6.69;55.54;101742.56;5525060;26;20632;-69
2024/04/11 00:12:21;;;;;;;9.30;2.10;;;;;;;6.70;55.81;101754.69;5523820;26;20259;-69
2024/04/11 00:14:49;;;;;;;5.30;1.57;;;;;;;6.69;55.57;101751.22;5496218;26;20214;-69
2024/04/11 00:17:16;;;;;;;4.43;1.50;;;;;;;6.69;55.59;101752.97;5501366;26;20223;-69
2024/04/11 00:19:44;;;;;;;7.13;1.20;;;;;;;6.62;55.63;101752.00;5504849;26;20791;-70
2024/04/11 00:22:10;;;;;;;6.50;1.40;;;;;;;6.66;56.32;101762.47;5508457;26;20278;-70
2024/04/11 00:24:39;;;;;;;7.73;1.43;;;;;;;6.65;56.06;101749.44;5507715;26;20321;-70
2024/04/11 00:27:09;;;;;;;8.20;1.80;;;;;;;6.63;55.85;101749.44;5499825;26;20275;-70
2024/04/11 00:29:37;;;;;;;6.87;1.70;;;;;;;6.65;56.14;101757.22;5521109;26;20290;-70
2024/04/11 00:32:04;;;;;;;5.27;1.57;;;;;;;6.63;56.12;101758.97;5525823;26;20233;-70
2024/04/11 00:34:38;;;;;;;4.67;1.80;;;;;;;6.63;56.20;101771.97;5507355;26;20578;-70
2024/04/11 00:37:04;;;;;;;5.03;1.77;;;;;;;6.60;56.50;101771.94;5502151;25;20818;-70
2024/04/11 00:39:33;;;;;;;5.97;1.73;;;;;;;6.62;56.05;101780.59;5516018;26;20218;-76
2024/04/11 00:41:59;;;;;;;11.33;1.70;;;;;;;6.60;56.49;101775.41;5507907;26;20222;-76
2024/04/11 00:44:32;;;;;;;5.70;2.10;;;;;;;6.59;56.66;101772.78;5506846;26;20788;-76
2024/04/11 00:46:58;;;;;;;6.17;1.57;;;;;;;6.56;56.62;101778.81;5501595;26;20700;-75
2024/04/11 00:49:26;;;;;;;8.33;1.83;;;;;;;6.57;56.39;101784.88;5507918;26;20252;-75
2024/04/11 00:51:52;;;;;;;5.77;1.73;;;;;;;6.56;56.45;101791.81;5505654;26;20359;-76
2024/04/11 00:54:22;;;;;;;6.63;1.67;;;;;;;6.55;56.61;101789.22;5523810;26;20265;-76
2024/04/11 00:56:48;;;;;;;4.20;1.70;;;;;;;6.55;56.63;101781.41;5507028;26;20282;-75
2024/04/11 00:59:18;;;;;;;4.10;1.37;;;;;;;6.53;56.71;101785.72;5517347;26;20218;-76
2024/04/11 01:01:46;;;;;;;4.80;1.70;;;;;;;6.49;56.69;101787.44;5504878;26;20754;-76
2024/04/11 01:04:15;;;;;;;5.13;1.50;;;;;;;6.51;56.93;101779.63;5509587;26;20228;-75
2024/04/11 01:07:05;;;;;;;7.37;1.57;;;;;;;6.41;57.16;101768.28;5511903;26;20278;-76
2024/04/11 01:09:31;;;;;;;5.03;1.60;;;;;;;6.47;57.08;101788.25;5505370;26;20222;-76
2024/04/11 01:11:57;;;;;;;6.17;1.50;;;;;;;6.47;57.29;101806.47;5518448;26;20230;-75
2024/04/11 01:14:26;;;;;;;7.30;1.80;;;;;;;6.46;57.19;101792.59;5510809;26;20227;-76
2024/04/11 01:16:55;;;;;;;5.73;1.83;;;;;;;6.47;57.18;101796.06;5491529;26;20336;-76
2024/04/11 01:19:24;;;;;;;7.37;1.80;;;;;;;6.43;57.39;101793.44;5496747;26;20299;-76
2024/04/11 01:21:50;;;;;;;6.53;1.50;;;;;;;6.41;57.23;101787.34;5499892;26;20219;-76
2024/04/11 01:24:21;;;;;;;10.13;2.37;;;;;;;6.42;57.41;101801.19;5503478;26;20218;-75
2024/04/11 01:26:47;;;;;;;7.87;1.50;;;;;;;6.39;57.32;101794.25;5507519;26;20256;-76
2024/04/11 01:29:16;;;;;;;5.57;1.60;;;;;;;6.40;57.66;101808.13;5506934;26;20568;-76
2024/04/11 01:31:44;;;;;;;5.03;1.67;;;;;;;6.38;57.57;101802.91;5517011;26;20568;-69
2024/04/11 01:34:12;;;;;;;7.10;1.60;;;;;;;6.37;57.98;101813.28;5521262;26;20219;-69
2024/04/11 01:36:38;;;;;;;7.23;1.47;;;;;;;6.34;57.79;101808.03;5524125;25;20231;-69
2024/04/11 01:39:09;;;;;;;8.07;1.43;;;;;;;6.32;57.85;101813.25;5522361;26;20620;-69
2024/04/11 01:41:38;;;;;;;7.67;1.67;;;;;;;6.32;57.60;101809.78;5506364;26;20225;-69
2024/04/11 01:44:07;;;;;;;7.13;1.80;;;;;;;6.30;57.71;101817.53;5511582;26;20222;-69
2024/04/11 01:46:33;;;;;;;6.27;1.77;;;;;;;6.29;58.04;101822.72;5510324;26;20258;-69
2024/04/11 01:49:02;;;;;;;7.30;1.57;;;;;;;6.26;58.13;101831.38;5506578;26;20278;-69
2024/04/11 01:51:28;;;;;;;7.07;1.87;;;;;;;6.25;58.29;101821.81;5514058;26;20219;-73
2024/04/11 01:53:57;;;;;;;10.40;2.27;;;;;;;6.19;58.12;101813.94;5495951;26;20218;-73
2024/04/11 01:56:25;;;;;;;6.70;1.67;;;;;;;6.22;58.09;101829.56;5513744;26;20275;-72
2024/04/11 01:58:56;;;;;;;5.93;1.60;;;;;;;6.21;58.29;101830.44;5524414;26;20269;-73
2024/04/11 02:01:22;;;;;;;4.97;1.47;;;;;;;6.19;58.16;101840.78;5519949;26;20277;-73
2024/04/11 02:03:53;;;;;;;4.60;1.53;;;;;;;6.19;58.47;101839.91;5516694;26;20218;-73
2024/04/11 02:06:19;;;;;;;6.73;1.37;;;;;;;6.17;58.61;101842.53;5511994;26;20753;-72
2024/04/11 02:08:49;;;;;;;9.20;1.83;;;;;;;6.15;58.41;101838.16;5507060;26;20217;-72
2024/04/11 02:11:15;;;;;;;6.43;1.90;;;;;;;6.12;58.55;101838.13;5504240;26;20220;-73
2024/04/11 02:13:44;;;;;;;5.80;1.70;;;;;;;6.13;58.85;101842.44;5507414;26;20230;-73
2024/04/11 02:16:13;;;;;;;5.90;1.40;;;;;;;6.13;59.01;101852.84;5510449;26;20227;-73
2024/04/11 02:18:42;;;;;;;3.57;1.37;;;;;;;6.08;58.78;101841.50;5521383;26;20218;-73
2024/04/11 02:21:08;;;;;;;6.00;1.83;;;;;;;6.09;58.84;101848.47;5490292;26;20262;-73
2024/04/11 02:23:39;;;;;;;7.17;2.00;;;;;;;6.08;59.11;101852.78;5496637;26;20274;-72
2024/04/11 02:26:04;;;;;;;6.07;1.90;;;;;;;6.09;58.68;101864.06;5517196;26;20707;-73
2024/04/11 02:28:33;;;;;;;4.77;1.30;;;;;;;6.08;59.09;101857.09;5514779;26;20290;-72
2024/04/11 02:30:59;;;;;;;7.17;1.83;;;;;;;6.08;59.01;101851.91;5509662;26;20339;-73
2024/04/11 02:33:32;;;;;;;4.67;1.33;;;;;;;6.08;59.10;101857.09;5505034;26;20230;-73
2024/04/11 02:35:58;;;;;;;7.73;1.77;;;;;;;6.07;58.90;101855.38;5517229;25;20230;-73
2024/04/11 02:38:28;;;;;;;6.93;1.30;;;;;;;6.06;59.14;101857.09;5523649;26;20210;-72
2024/04/11 02:40:54;;;;;;;5.57;1.53;;;;;;;6.04;59.02;101850.13;5514571;26;20258;-73
2024/04/11 02:43:23;;;;;;;6.23;1.70;;;;;;;6.02;59.03;101851.81;5495265;26;20338;-73
2024/04/11 02:45:49;;;;;;;4.03;1.50;;;;;;;6.02;59.02;101851.81;5516685;26;20246;-73
2024/04/11 02:48:18;;;;;;;5.17;1.40;;;;;;;6.02;59.03;101847.50;5502713;26;20261;-72
2024/04/11 02:50:47;;;;;;;5.63;1.17;;;;;;;6.01;59.05;101844.91;5508775;26;20637;-73
2024/04/11 02:53:17;;;;;;;10.33;1.77;;;;;;;6.00;59.25;101849.19;5507967;26;20217;-73
2024/04/11 02:55:44;;;;;;;5.27;1.07;;;;;;;5.99;58.98;101853.53;5499275;26;20270;-73
2024/04/11 02:58:12;;;;;;;5.90;1.50;;;;;;;5.98;59.27;101845.72;5504403;26;20214;-73
2024/04/11 03:00:38;;;;;;;4.30;1.30;;;;;;;5.95;59.04;101835.28;5521625;26;20229;-73
2024/04/11 03:03:07;;;;;;;7.80;1.70;;;;;;;5.98;59.46;101845.72;5492276;26;20295;-73
2024/04/11 03:05:36;;;;;;;4.43;1.67;;;;;;;5.95;59.48;101846.56;5495226;26;20215;-72
2024/04/11 03:08:09;;;;;;;8.23;1.47;;;;;;;5.94;58.98;101843.91;5493066;26;20782;-73
2024/04/11 03:10:41;;;;;;;3.53;1.40;;;;;;;5.92;59.18;101841.31;5503331;26;20555;-73
2024/04/11 03:13:10;;;;;;;5.50;1.40;;;;;;;5.84;59.62;101829.09;5507815;26;20762;-73
2024/04/11 03:15:36;;;;;;;6.27;1.37;;;;;;;5.88;59.28;101849.91;5509023;26;20233;-73
2024/04/11 03:18:04;;;;;;;7.63;1.87;;;;;;;5.86;59.41;101838.63;5517016;26;20555;-73
2024/04/11 03:20:30;;;;;;;8.03;1.80;;;;;;;5.84;59.50;101842.94;5521086;26;20270;-72
2024/04/11 03:22:59;;;;;;;5.00;1.73;;;;;;;5.84;59.36;101845.53;5525160;26;20693;-73
2024/04/11 03:25:30;;;;;;;5.90;1.40;;;;;;;5.82;59.78;101842.03;5507700;26;20257;-73
2024/04/11 03:28:01;;;;;;;4.80;1.40;;;;;;;5.82;59.45;101839.44;5512595;26;20254;-73
2024/04/11 03:30:29;;;;;;;6.07;1.20;;;;;;;5.81;59.39;101839.44;5516656;26;20249;-72
2024/04/11 03:32:58;;;;;;;5.67;1.40;;;;;;;5.79;59.41;101834.19;5506769;26;20222;-73
2024/04/11 03:35:25;;;;;;;5.47;1.67;;;;;;;5.78;59.37;101832.47;5504347;26;20221;-73
2024/04/11 03:37:54;;;;;;;4.83;1.30;;;;;;;5.75;59.80;101828.09;5503762;26;20594;-72
2024/04/11 03:40:19;;;;;;;7.07;1.53;;;;;;;5.75;59.65;101832.41;5513679;26;20594;-72
2024/04/11 03:42:51;;;;;;;9.73;1.70;;;;;;;5.72;59.59;101829.78;5522612;26;20230;-72
2024/04/11 03:45:22;;;;;;;4.40;1.53;;;;;;;5.74;60.06;101831.56;5526120;26;20222;-73
2024/04/11 03:47:51;;;;;;;7.07;1.53;;;;;;;5.73;60.08;101831.53;5488224;26;20219;-73
2024/04/11 03:50:17;;;;;;;7.50;1.30;;;;;;;5.72;59.67;101828.06;5497664;26;20225;-68
2024/04/11 03:52:45;;;;;;;5.37;1.40;;;;;;;5.72;60.14;101832.38;5505828;26;20707;-68
2024/04/11 03:55:12;;;;;;;6.83;2.07;;;;;;;5.72;59.94;101824.59;5512102;26;20337;-68
2024/04/11 03:57:40;;;;;;;5.07;1.30;;;;;;;5.72;60.03;101829.78;5511606;26;20656;-68
2024/04/11 04:00:10;;;;;;;9.23;2.03;;;;;;;5.72;60.33;101827.19;5498796;26;20368;-68
2024/04/11 04:02:39;;;;;;;6.97;1.30;;;;;;;5.71;60.21;101834.06;5498715;26;20257;-68
2024/04/11 04:05:13;;;;;;;6.73;1.60;;;;;;;5.72;60.00;101822.00;5487701;26;20553;-68
2024/04/11 04:07:39;;;;;;;5.73;1.10;;;;;;;5.71;60.50;101828.00;5491208;26;20261;-68
2024/04/11 04:10:08;;;;;;;4.87;1.17;;;;;;;5.70;60.58;101823.69;5516530;26;20560;-68
2024/04/11 04:12:34;;;;;;;8.10;1.60;;;;;;;5.69;60.08;101827.16;5518422;26;20317;-68
2024/04/11 04:15:05;;;;;;;12.03;1.90;;;;;;;5.68;60.26;101826.25;5514492;26;20226;-68
2024/04/11 04:17:34;;;;;;;5.83;1.50;;;;;;;5.68;60.28;101825.38;5507062;26;20222;-68
2024/04/11 04:20:03;;;;;;;4.27;1.47;;;;;;;5.69;60.51;101832.34;5510824;26;20603;-69
2024/04/11 04:22:29;;;;;;;8.60;1.50;;;;;;;5.69;60.29;101832.34;5516986;26;20337;-68
2024/04/11 04:24:59;;;;;;;6.37;1.13;;;;;;;5.68;60.32;101827.97;5497126;26;20223;-68
2024/04/11 04:27:25;;;;;;;5.27;1.40;;;;;;;5.68;60.30;101833.16;5524612;26;20305;-68
2024/04/11 04:29:55;;;;;;;5.73;2.00;;;;;;;5.68;60.64;101831.44;5525218;26;20277;-68
2024/04/11 04:32:21;;;;;;;5.13;1.43;;;;;;;5.69;60.34;101834.94;5520698;26;20351;-68
2024/04/11 04:34:53;;;;;;;6.53;1.87;;;;;;;5.71;60.38;101833.22;5515626;26;20225;-68
2024/04/11 04:37:20;;;;;;;7.10;1.77;;;;;;;5.67;60.46;101832.31;5508665;26;20231;-68
2024/04/11 04:39:49;;;;;;;4.33;1.50;;;;;;;5.72;60.61;101837.56;5503778;26;20239;-68
2024/04/11 04:42:15;;;;;;;4.37;1.20;;;;;;;5.73;60.57;101834.13;5507700;26;20214;-70
2024/04/11 04:44:46;;;;;;;6.33;1.50;;;;;;;5.71;60.49;101826.28;5510924;26;20268;-73
2024/04/11 04:47:16;;;;;;;4.80;1.17;;;;;;;5.74;60.77;101830.66;5504612;26;20719;-74
2024/04/11 04:49:47;;;;;;;8.07;1.60;;;;;;;5.74;60.68;101836.75;5524931;26;20263;-70
2024/04/11 04:52:18;;;;;;;5.50;1.13;;;;;;;5.75;60.83;101828.09;5523118;26;20813;-71
2024/04/11 04:54:47;;;;;;;6.53;1.50;;;;;;;5.76;61.04;101828.97;5518415;26;20254;-71
2024/04/11 04:57:13;;;;;;;5.33;1.23;;;;;;;5.78;60.76;101836.78;5514396;26;20706;-70
2024/04/11 04:59:42;;;;;;;6.27;1.47;;;;;;;5.78;60.58;101831.59;5508110;26;20219;-70
2024/04/11 05:02:12;;;;;;;2.80;1.10;;;;;;;5.79;61.12;101829.00;5502172;26;20229;-70
2024/04/11 05:04:37;;;;;;;6.43;1.43;;;;;;;5.80;60.66;101830.75;5514123;26;20267;-70
2024/04/11 05:07:08;;;;;;;8.93;1.97;;;;;;;5.81;61.10;101822.13;5517780;26;20213;-70
2024/04/11 05:09:38;;;;;;;6.23;1.40;;;;;;;5.82;60.91;101823.84;5522837;26;20219;-70
2024/04/11 05:12:07;;;;;;;7.00;1.30;;;;;;;5.82;61.09;101822.97;5524918;26;20286;-70
2024/04/11 05:14:38;;;;;;;7.83;1.50;;;;;;;5.84;61.05;101818.69;5488820;26;20218;-67
2024/04/11 05:17:08;;;;;;;5.77;1.53;;;;;;;5.84;61.12;101816.97;5494163;26;20276;-68
2024/04/11 05:19:34;;;;;;;8.00;1.73;;;;;;;5.87;60.82;101818.72;5491334;26;20253;-76
2024/04/11 05:22:04;;;;;;;3.97;1.30;;;;;;;5.86;60.97;101819.56;5496635;26;20226;-77
2024/04/11 05:24:30;;;;;;;7.37;1.70;;;;;;;5.89;61.05;101830.88;5489396;26;20227;-76
2024/04/11 05:27:01;;;;;;;3.93;1.37;;;;;;;5.90;61.40;101824.84;5502522;26;20281;-78
2024/04/11 05:29:27;;;;;;;7.63;1.40;;;;;;;5.89;61.40;101823.09;5492200;26;20234;-76
2024/04/11 05:31:56;;;;;;;6.67;1.37;;;;;;;5.92;61.56;101830.94;5489192;26;20235;-80
2024/04/11 05:34:26;;;;;;;8.30;1.70;;;;;;;5.93;61.16;101826.59;5492145;26;20227;-78
2024/04/11 05:36:55;;;;;;;5.50;1.30;;;;;;;5.96;61.28;101827.50;5491493;26;20235;-77
2024/04/11 05:39:22;;;;;;;3.47;1.70;;;;;;;5.98;61.37;101833.59;5492368;26;20238;-76
2024/04/11 05:41:51;;;;;;;7.43;1.90;;;;;;;6.01;61.56;101834.50;5493749;26;20346;-79
2024/04/11 05:44:20;;;;;;;4.03;1.30;;;;;;;6.03;61.17;101833.69;5493336;26;20594;-78
2024/04/11 05:46:48;;;;;;;8.07;1.53;;;;;;;6.05;61.41;101836.28;5495258;26;20246;-78
2024/04/11 05:49:16;;;;;;;7.73;1.30;;;;;;;6.07;61.56;101835.44;5493464;26;20403;-76
2024/04/11 05:51:45;;;;;;;5.13;1.73;;;;;;;6.11;61.20;101851.94;5488459;26;20231;-76
2024/04/11 05:54:11;;;;;;;6.80;1.43;;;;;;;6.13;61.69;101840.72;5490239;26;20286;-75
2024/04/11 05:56:39;;;;;;;5.17;1.20;;;;;;;6.15;61.44;101844.22;5491340;26;20242;-76
2024/04/11 05:59:06;;;;;;;6.57;1.67;;;;;;;6.18;61.43;101844.25;5497256;26;20238;-76
2024/04/11 06:01:40;;;;;;;5.20;1.40;;;;;;;6.19;61.60;101840.78;5495662;26;20634;-75
2024/04/11 06:04:06;;;;;;;8.40;1.53;;;;;;;6.23;61.20;101846.91;5494601;26;20750;-74
2024/04/11 06:06:35;;;;;;;7.07;1.27;;;;;;;6.25;61.33;101845.19;5497420;26;20230;-75
2024/04/11 06:09:02;;;;;;;5.20;2.43;;;;;;;6.28;61.49;101840.03;5500961;26;20671;-74
2024/04/11 06:11:31;;;;;;;10.73;1.73;;;;;;;6.29;61.25;101839.19;5490317;26;20335;-74
2024/04/11 06:13:56;;;;;;;6.20;1.27;;;;;;;6.32;61.55;101836.63;5499078;26;20268;-75
2024/04/11 06:16:25;;;;;;;6.33;1.60;;;;;;;6.34;61.46;101841.81;5494410;26;20231;-74
2024/04/11 06:18:54;;;;;;;5.23;1.50;;;;;;;6.38;61.27;101841.91;5495546;26;20242;-74
2024/04/11 06:21:32;;;;;;;6.80;1.43;;;;;;;6.41;61.35;101835.88;5495777;26;20283;-75
2024/04/11 06:23:59;;;;;;;6.43;1.50;;;;;;;6.43;61.56;101841.97;5497957;26;20226;-75
2024/04/11 06:26:27;;;;;;;4.67;1.70;;;;;;;6.46;61.36;101836.78;5494182;26;20331;-74
2024/04/11 06:28:53;;;;;;;8.40;1.60;;;;;;;6.48;61.24;101832.47;5499064;26;20243;-77
2024/04/11 06:31:24;;;;;;;4.27;1.63;;;;;;;6.52;61.42;101838.59;5497869;26;20331;-74
2024/04/11 06:33:54;;;;;;;3.13;1.07;;;;;;;6.54;61.21;101836.84;5493655;26;21090;-74
2024/04/11 06:36:23;;;;;;;8.27;1.77;;;;;;;6.57;61.06;101831.69;5507734;26;20365;-74
2024/04/11 06:38:51;;;;;;;4.73;1.43;;;;;;;6.57;61.25;101835.19;5489367;26;20340;-75
2024/04/11 06:41:22;;;;;;;5.70;1.70;;;;;;;6.62;60.93;101835.22;5501716;26;20247;-74
2024/04/11 06:43:49;;;;;;;6.90;1.60;;;;;;;6.67;61.16;101838.75;5489544;26;20857;-75
2024/04/11 06:46:18;;;;;;;2.90;1.03;;;;;;;6.69;61.35;101829.25;5498806;26;20643;-76
2024/04/11 06:48:45;;;;;;;5.23;1.70;;;;;;;6.71;61.26;101821.44;5491317;26;20330;-76
2024/04/11 06:51:19;;;;;;;5.67;1.40;;;;;;;6.71;61.15;101808.44;5495233;26;20278;-77
2024/04/11 06:53:46;;;;;;;5.10;1.50;;;;;;;6.81;61.16;101818.94;5491172;26;20278;-75
2024/04/11 06:56:17;;;;;;;4.77;1.30;;;;;;;6.85;60.90;101818.13;5500311;26;20297;-72
2024/04/11 06:58:45;;;;;;;4.90;1.60;;;;;;;6.89;60.89;101814.69;5489584;26;20273;-76
2024/04/11 07:01:15;;;;;;;5.53;1.93;;;;;;;6.93;60.59;101802.56;5493767;26;20273;-75
2024/04/11 07:03:43;;;;;;;4.67;1.43;;;;;;;6.98;60.55;101813.03;5494215;26;20270;-75
2024/04/11 07:06:21;;;;;;;3.47;1.10;;;;;;;7.02;60.31;101809.59;5494447;26;20231;-76
2024/04/11 07:08:52;;;;;;;2.63;0.93;;;;;;;6.99;60.64;101793.97;5493103;26;20242;-76
2024/04/11 07:11:27;;;;;;;5.10;1.10;;;;;;;7.09;60.32;101811.41;5493968;26;20274;-73
2024/04/11 07:13:54;;;;;;;4.73;1.23;;;;;;;7.15;60.54;101806.25;5496086;26;20343;-75
2024/04/11 07:16:26;;;;;;;3.80;0.90;;;;;;;7.19;60.13;101799.31;5497246;26;20232;-76
2024/04/11 07:18:54;;;;;;;3.77;1.33;;;;;;;7.22;60.55;101802.81;5493082;26;20235;-73
2024/04/11 07:21:25;;;;;;;3.53;1.07;;;;;;;7.27;60.26;101801.13;5492941;26;20234;-69
2024/04/11 07:23:55;;;;;;;5.67;1.40;;;;;;;7.33;60.37;101808.09;5497141;26;20239;-70
2024/04/11 07:26:24;;;;;;;6.17;1.60;;;;;;;7.40;60.44;101806.47;5490674;26;20240;-71
2024/04/11 07:28:51;;;;;;;5.53;1.13;;;;;;;7.45;60.04;101804.75;5496401;26;20235;-71
2024/04/11 07:31:21;;;;;;;3.43;1.20;;;;;;;7.49;59.67;101803.94;5494083;26;20240;-70
2024/04/11 07:33:48;;;;;;;3.10;1.10;;;;;;;7.54;59.46;101800.50;5497728;26;20236;-71
2024/04/11 07:36:21;;;;;;;3.13;0.93;;;;;;;7.59;59.42;101802.22;5493193;26;20362;-70
2024/04/11 07:38:47;;;;;;;5.23;0.90;;;;;;;7.62;59.49;101805.72;5498854;26;20583;-69
2024/04/11 07:41:23;;;;;;;7.70;1.40;;;;;;;7.71;59.44;101811.00;5489413;26;20717;-73
2024/04/11 07:43:55;;;;;;;4.30;1.37;;;;;;;7.73;59.12;101811.88;5494719;26;20281;-71
2024/04/11 07:46:23;;;;;;;2.50;1.17;;;;;;;7.78;59.27;101810.16;5494670;26;20844;-75
2024/04/11 07:48:52;;;;;;;5.60;1.30;;;;;;;7.82;59.34;101811.03;5496367;26;20350;-75
2024/04/11 07:51:19;;;;;;;7.20;1.47;;;;;;;7.86;59.51;101811.97;5491485;26;20274;-73
2024/04/11 07:53:49;;;;;;;3.37;0.80;;;;;;;7.87;59.59;101798.06;5493456;26;20235;-71
2024/04/11 07:56:20;;;;;;;3.80;1.10;;;;;;;7.86;59.69;101783.28;5490820;26;20226;-71
2024/04/11 07:58:50;;;;;;;1.80;1.00;;;;;;;7.92;59.43;101781.59;5495182;26;20228;-71
2024/04/11 08:01:16;;;;;;;3.70;1.00;;;;;;;7.97;59.81;101781.63;5499899;26;20335;-72
2024/04/11 08:03:45;;;;;;;4.27;1.20;;;;;;;7.99;59.93;101787.69;5490053;26;20645;-71
2024/04/11 08:06:11;;;;;;;2.43;1.20;;;;;;;7.95;59.93;101765.09;5506713;26;20224;-70
2024/04/11 08:08:40;;;;;;;3.80;1.40;;;;;;;8.05;60.03;101781.63;5491640;26;20301;-71
2024/04/11 08:11:06;;;;;;;3.37;1.03;;;;;;;8.08;60.36;101777.31;5500789;26;20223;-72
2024/04/11 08:13:38;;;;;;;2.93;1.30;;;;;;;8.10;60.07;101772.97;5495098;26;20231;-72
2024/04/11 08:16:07;;;;;;;4.20;1.30;;;;;;;8.11;60.44;101766.91;5495880;26;20280;-71
2024/04/11 08:18:37;;;;;;;3.60;1.20;;;;;;;8.13;60.56;101761.66;5493374;26;20236;-74
2024/04/11 08:21:07;;;;;;;2.47;1.40;;;;;;;8.15;60.81;101776.44;5491206;26;20609;-74
2024/04/11 08:23:36;;;;;;;5.40;1.50;;;;;;;8.16;60.95;101766.91;5490390;26;20227;-75
2024/04/11 08:26:02;;;;;;;7.20;1.57;;;;;;;8.18;60.84;101760.81;5507221;26;20357;-75
2024/04/11 08:28:31;;;;;;;3.27;1.23;;;;;;;8.12;61.10;101747.78;5494249;26;20229;-74
2024/04/11 08:31:00;;;;;;;3.80;1.13;;;;;;;8.20;61.08;101753.88;5493695;26;20268;-68
2024/04/11 08:33:29;;;;;;;5.33;1.20;;;;;;;8.22;61.23;101744.34;5492948;26;20302;-68
2024/04/11 08:35:57;;;;;;;7.63;1.77;;;;;;;8.25;61.42;101746.09;5496663;26;20236;-68
2024/04/11 08:38:26;;;;;;;4.33;1.13;;;;;;;8.26;61.30;101723.50;5490061;26;20334;-68
2024/04/11 08:40:57;;;;;;;7.33;1.70;;;;;;;8.28;61.51;101713.91;5491547;26;20264;-68
2024/04/11 08:43:27;;;;;;;4.20;1.33;;;;;;;8.30;61.56;101706.97;5493550;26;20327;-69
2024/04/11 08:45:58;;;;;;;5.10;1.87;;;;;;;8.31;61.59;101695.69;5500025;26;20272;-68
2024/04/11 08:48:29;;;;;;;3.10;1.40;;;;;;;8.36;61.79;101693.94;5502004;26;20317;-68
2024/04/11 08:51:03;;;;;;;4.73;1.67;;;;;;;8.37;61.74;101686.13;5490812;26;20240;-68
2024/04/11 08:53:35;;;;;;;3.70;1.20;;;;;;;8.40;61.85;101695.69;5495690;26;20275;-68
2024/04/11 08:56:03;;;;;;;4.53;1.47;;;;;;;8.38;62.08;101692.22;5485024;26;20265;-69
2024/04/11 08:58:33;;;;;;;3.00;1.30;;;;;;;8.43;62.19;101695.69;5490078;26;20242;-69
2024/04/11 09:01:06;;;;;;;3.60;1.50;;;;;;;8.44;61.99;101694.81;5492330;26;20268;-69
2024/04/11 09:03:40;;;;;;;5.63;1.40;;;;;;;8.44;62.18;101685.25;5488885;26;20282;-69
2024/04/11 09:06:09;;;;;;;3.00;1.30;;;;;;;8.44;62.18;101692.22;5493433;26;20260;-69
2024/04/11 09:08:37;;;;;;;6.43;1.73;;;;;;;8.46;62.20;101685.28;5500393;26;20326;-69
2024/04/11 09:11:05;;;;;;;4.77;1.53;;;;;;;8.46;62.01;101683.53;5489867;26;20460;-68
2024/04/11 09:13:33;;;;;;;3.77;1.50;;;;;;;8.46;62.13;101691.34;5496439;26;20576;-69
2024/04/11 09:16:00;;;;;;;3.70;1.30;;;;;;;8.45;62.25;101678.31;5493952;26;20233;-69
2024/04/11 09:18:29;;;;;;;3.13;1.40;;;;;;;8.46;62.22;101680.06;5493642;26;20664;-70
2024/04/11 09:21:04;;;;;;;4.07;1.33;;;;;;;8.45;61.85;101673.09;5490256;26;20235;-69
2024/04/11 09:23:38;;;;;;;6.53;1.77;;;;;;;8.42;62.12;101671.38;5492716;26;20225;-70
2024/04/11 09:26:04;;;;;;;4.77;1.40;;;;;;;8.41;62.01;101672.22;5485047;26;20304;-69
2024/04/11 09:28:33;;;;;;;4.57;1.90;;;;;;;8.39;62.41;101673.97;5496051;26;20229;-70
2024/04/11 09:31:00;;;;;;;4.90;1.60;;;;;;;8.39;62.73;101662.66;5491682;26;20846;-70
2024/04/11 09:33:31;;;;;;;6.30;1.70;;;;;;;8.39;62.93;101657.44;5496830;26;20262;-69
2024/04/11 09:36:03;;;;;;;5.60;1.70;;;;;;;8.31;63.01;101649.63;5500604;26;20279;-69
2024/04/11 09:38:32;;;;;;;5.67;1.53;;;;;;;8.36;63.12;101636.56;5490908;26;20305;-69
2024/04/11 09:41:04;;;;;;;6.70;1.63;;;;;;;8.34;63.38;101633.97;5495452;26;20740;-75
2024/04/11 09:43:37;;;;;;;5.27;1.80;;;;;;;8.32;63.71;101640.06;5497003;26;20226;-76
2024/04/11 09:46:06;;;;;;;6.83;2.10;;;;;;;8.32;64.25;101645.28;5483313;26;20224;-75
2024/04/11 09:48:38;;;;;;;5.13;1.70;;;;;;;8.30;64.22;101628.75;5493525;26;20261;-75
2024/04/11 09:51:10;;;;;;;5.23;1.80;;;;;;;8.29;64.60;101627.03;5486352;26;20229;-75
2024/04/11 09:53:39;;;;;;;5.17;1.67;;;;;;;8.27;64.87;101613.09;5487811;26;20726;-75
2024/04/11 09:56:08;;;;;;;5.13;1.80;;;;;;;8.24;64.99;101612.22;5492057;26;20315;-75
2024/04/11 09:58:42;;;;;;;5.23;1.40;;;;;;;8.33;65.20;101607.91;5489072;26;20340;-75
2024/04/11 10:01:29;;;;;;;7.60;1.80;;;;;;;8.34;65.06;101599.22;5491932;26;20232;-72
2024/04/11 10:04:03;;;;;;;3.93;1.60;;;;;;;8.31;65.22;101591.41;5489641;26;20227;-72
2024/04/11 10:06:35;;;;;;;7.70;1.70;;;;;;;8.34;65.68;101591.41;5488582;26;20228;-72
2024/04/11 10:09:17;;;;;;;3.10;1.63;;;;;;;8.32;65.83;101575.75;5486181;26;20266;-71
2024/04/11 10:11:45;;;;;;;7.17;2.53;;;;;;;8.33;66.24;101574.00;5492571;26;20709;-72
2024/04/11 10:14:20;;;;;;;6.10;2.10;;;;;;;8.33;66.11;101574.84;5488415;26;20321;-72
2024/04/11 10:16:48;;;;;;;6.00;1.60;;;;;;;8.34;66.22;101573.16;5495627;26;20228;-72
2024/04/11 10:19:26;;;;;;;5.77;1.70;;;;;;;8.33;66.33;101566.19;5484795;26;20767;-77
2024/04/11 10:22:01;;;;;;;5.07;1.70;;;;;;;8.31;66.16;101555.75;5494815;26;20300;-75
2024/04/11 10:24:34;;;;;;;4.77;1.67;;;;;;;8.34;66.35;101570.53;5497368;26;20221;-76
2024/04/11 10:27:11;;;;;;;5.33;2.00;;;;;;;8.34;66.32;101562.72;5492585;26;20228;-77
2024/04/11 10:29:43;;;;;;;5.57;1.87;;;;;;;8.33;66.56;101547.94;5492387;26;20287;-78
2024/04/11 10:32:26;;;;;;;8.00;2.00;;;;;;;8.35;66.48;101533.16;5487591;26;20592;-76
2024/04/11 10:34:56;;;;;;;4.30;2.00;;;;;;;8.34;66.82;101534.03;5487655;26;20711;-73
2024/04/11 10:37:29;;;;;;;6.17;2.57;;;;;;;8.34;66.97;101518.41;5497592;26;20389;-74
2024/04/11 10:39:57;;;;;;;6.80;2.20;;;;;;;8.29;66.93;101509.72;5493052;26;20259;-75
2024/04/11 10:42:36;;;;;;;7.03;2.10;;;;;;;8.35;67.13;101509.69;5493216;26;20227;-75
2024/04/11 10:45:04;;;;;;;5.10;2.53;;;;;;;8.35;67.48;101510.56;5495936;26;20328;-76
2024/04/11 10:47:35;;;;;;;6.90;2.00;;;;;;;8.36;67.38;101501.88;5495227;26;20579;-75
2024/04/11 10:50:02;;;;;;;6.80;1.90;;;;;;;8.38;67.41;101499.25;5490701;26;20228;-75
2024/04/11 10:52:35;;;;;;;3.80;2.20;;;;;;;8.35;67.73;101484.47;5499981;26;20260;-76
2024/04/11 10:55:12;;;;;;;7.03;2.37;;;;;;;8.38;67.49;101483.59;5484990;26;20612;-75
2024/04/11 10:57:44;;;;;;;5.57;2.20;;;;;;;8.39;67.35;101480.13;5502508;26;20227;-75
2024/04/11 11:00:11;;;;;;;5.93;2.23;;;;;;;8.37;67.12;101474.91;5492599;26;20264;-75
2024/04/11 11:02:42;;;;;;;6.30;2.10;;;;;;;8.38;67.28;101474.03;5492595;26;20264;-73
2024/04/11 11:05:08;;;;;;;4.83;2.57;;;;;;;8.39;67.62;101470.59;5497192;26;20232;-73
2024/04/11 11:07:42;;;;;;;5.70;2.50;;;;;;;8.38;68.12;101465.34;5496246;26;20274;-73
2024/04/11 11:10:11;;;;;;;4.87;2.33;;;;;;;8.39;67.68;101467.06;5489286;26;20232;-77
2024/04/11 11:12:42;;;;;;;7.30;2.20;;;;;;;8.37;67.92;101469.72;5499771;26;20228;-74
2024/04/11 11:15:13;;;;;;;7.53;2.50;;;;;;;8.36;68.06;101465.38;5489615;26;20229;-73
2024/04/11 11:17:45;;;;;;;6.97;2.30;;;;;;;8.35;68.15;101463.63;5496422;26;20323;-74
2024/04/11 11:20:13;;;;;;;7.57;2.47;;;;;;;8.37;68.43;101461.03;5499693;26;20284;-79
2024/04/11 11:22:44;;;;;;;7.83;2.87;;;;;;;8.37;68.36;101454.06;5494235;26;20228;-77
2024/04/11 11:25:11;;;;;;;5.33;2.37;;;;;;;8.36;68.42;101448.84;5497091;26;20272;-78
2024/04/11 11:27:41;;;;;;;4.33;2.30;;;;;;;8.35;68.35;101441.91;5503627;26;20281;-76
2024/04/11 11:30:15;;;;;;;5.97;2.30;;;;;;;8.33;68.54;101430.59;5486021;26;20229;-75
2024/04/11 11:32:44;;;;;;;7.10;2.20;;;;;;;8.37;68.64;101424.53;5496227;26;20873;-75
2024/04/11 11:35:12;;;;;;;4.13;2.30;;;;;;;8.36;68.50;101413.22;5495933;26;20225;-76
2024/04/11 11:37:41;;;;;;;4.47;2.40;;;;;;;8.21;68.46;101388.03;5492736;26;20272;-75
2024/04/11 11:42:56;;;;;;;5.33;2.10;;;;;;;8.34;68.65;101404.53;5488585;26;20762;-76
2024/04/11 11:45:27;;;;;;;6.20;2.20;;;;;;;8.34;68.97;101391.50;5496491;26;20230;-79